sensor_id;sensor_type;location;lat;lon;timestamp;P1;durP1;ratioP1;P2;durP2;ratioP2
55202;SDS011;41077;52.956;6.796;2023-03-14T00:01:19;1122.43;;;611.25;;
55202;SDS011;41077;52.956;6.796;2023-03-14T00:03:46;1999.90;;;999.90;;
55202;SDS011;41077;52.956;6.796;2023-03-14T00:06:12;1999.90;;;999.90;;
55202;SDS011;41077;52.956;6.796;2023-03-14T00:08:39;1999.90;;;999.90;;
55202;SDS011;41077;52.956;6.796;2023-03-14T00:11:07;1999.90;;;999.90;;
55202;SDS011;41077;52.956;6.796;2023-03-14T00:13:34;1999.90;;;999.90;;
55202;SDS011;41077;52.956;6.796;2023-03-14T00:16:02;1999.90;;;999.90;;
55202;SDS011;41077;52.956;6.796;2023-03-14T00:18:28;1999.90;;;999.90;;
55202;SDS011;41077;52.956;6.796;2023-03-14T00:20:56;1999.90;;;999.90;;
55202;SDS011;41077;52.956;6.796;2023-03-14T00:23:23;1999.90;;;999.90;;
55202;SDS011;41077;52.956;6.796;2023-03-14T00:25:49;1999.90;;;999.90;;
55202;SDS011;41077;52.956;6.796;2023-03-14T00:28:14;1999.90;;;999.90;;
55202;SDS011;41077;52.956;6.796;2023-03-14T00:30:40;1999.90;;;999.90;;
55202;SDS011;41077;52.956;6.796;2023-03-14T00:33:06;1999.90;;;999.90;;
55202;SDS011;41077;52.956;6.796;2023-03-14T00:35:31;1999.90;;;999.90;;
55202;SDS011;41077;52.956;6.796;2023-03-14T00:37:57;1999.90;;;999.90;;
55202;SDS011;41077;52.956;6.796;2023-03-14T00:40:22;1999.90;;;999.90;;
55202;SDS011;41077;52.956;6.796;2023-03-14T00:42:48;1999.90;;;999.90;;
55202;SDS011;41077;52.956;6.796;2023-03-14T00:45:14;1999.90;;;999.90;;
55202;SDS011;41077;52.956;6.796;2023-03-14T00:47:39;1999.90;;;999.90;;
55202;SDS011;41077;52.956;6.796;2023-03-14T00:50:05;1999.90;;;999.90;;
55202;SDS011;41077;52.956;6.796;2023-03-14T00:52:31;1999.90;;;999.90;;
55202;SDS011;41077;52.956;6.796;2023-03-14T00:54:57;1999.90;;;999.90;;
55202;SDS011;41077;52.956;6.796;2023-03-14T00:57:23;1999.90;;;999.90;;
55202;SDS011;41077;52.956;6.796;2023-03-14T00:59:48;1999.90;;;999.90;;
55202;SDS011;41077;52.956;6.796;2023-03-14T01:02:16;1999.90;;;999.90;;
55202;SDS011;41077;52.956;6.796;2023-03-14T01:04:42;1999.90;;;999.90;;
55202;SDS011;41077;52.956;6.796;2023-03-14T01:07:08;1999.90;;;999.90;;
55202;SDS011;41077;52.956;6.796;2023-03-14T01:09:33;1999.90;;;999.90;;
55202;SDS011;41077;52.956;6.796;2023-03-14T01:11:59;1999.90;;;999.90;;
55202;SDS011;41077;52.956;6.796;2023-03-14T01:14:25;1999.90;;;999.90;;
55202;SDS011;41077;52.956;6.796;2023-03-14T01:16:51;1999.90;;;999.90;;
55202;SDS011;41077;52.956;6.796;2023-03-14T01:19:16;1999.90;;;999.90;;
55202;SDS011;41077;52.956;6.796;2023-03-14T01:21:42;1999.90;;;999.90;;
55202;SDS011;41077;52.956;6.796;2023-03-14T01:24:10;1999.90;;;999.90;;
55202;SDS011;41077;52.956;6.796;2023-03-14T01:26:36;1999.90;;;999.90;;
55202;SDS011;41077;52.956;6.796;2023-03-14T01:29:01;1999.90;;;999.90;;
55202;SDS011;41077;52.956;6.796;2023-03-14T01:31:28;1999.90;;;999.90;;
55202;SDS011;41077;52.956;6.796;2023-03-14T01:33:54;1999.90;;;999.90;;
55202;SDS011;41077;52.956;6.796;2023-03-14T01:36:20;1999.90;;;999.90;;
55202;SDS011;41077;52.956;6.796;2023-03-14T01:38:45;1999.90;;;999.90;;
55202;SDS011;41077;52.956;6.796;2023-03-14T01:41:13;1999.90;;;999.90;;
55202;SDS011;41077;52.956;6.796;2023-03-14T01:43:42;1999.90;;;999.90;;
55202;SDS011;41077;52.956;6.796;2023-03-14T01:46:24;1999.90;;;999.90;;
55202;SDS011;41077;52.956;6.796;2023-03-14T01:51:56;1999.90;;;999.90;;
55202;SDS011;41077;52.956;6.796;2023-03-14T01:54:31;1999.90;;;999.90;;
55202;SDS011;41077;52.956;6.796;2023-03-14T01:57:41;1999.90;;;999.90;;
55202;SDS011;41077;52.956;6.796;2023-03-14T01:59:59;1999.90;;;999.90;;
55202;SDS011;41077;52.956;6.796;2023-03-14T02:02:51;1999.90;;;999.90;;
55202;SDS011;41077;52.956;6.796;2023-03-14T02:05:25;1999.90;;;999.90;;
55202;SDS011;41077;52.956;6.796;2023-03-14T02:07:56;1999.90;;;999.90;;
55202;SDS011;41077;52.956;6.796;2023-03-14T02:10:25;1999.90;;;999.90;;
55202;SDS011;41077;52.956;6.796;2023-03-14T02:12:55;160.23;;;140.02;;
55202;SDS011;41077;52.956;6.796;2023-03-14T02:15:24;1999.90;;;999.90;;
55202;SDS011;41077;52.956;6.796;2023-03-14T02:17:49;1999.90;;;999.90;;
55202;SDS011;41077;52.956;6.796;2023-03-14T02:20:28;1999.90;;;999.90;;
55202;SDS011;41077;52.956;6.796;2023-03-14T02:23:02;1999.90;;;999.90;;
55202;SDS011;41077;52.956;6.796;2023-03-14T02:28:32;1999.90;;;999.90;;
55202;SDS011;41077;52.956;6.796;2023-03-14T02:30:58;1999.90;;;999.90;;
55202;SDS011;41077;52.956;6.796;2023-03-14T02:33:24;1999.90;;;999.90;;
55202;SDS011;41077;52.956;6.796;2023-03-14T02:35:52;1513.85;;;762.70;;
55202;SDS011;41077;52.956;6.796;2023-03-14T02:38:27;1999.90;;;999.90;;
55202;SDS011;41077;52.956;6.796;2023-03-14T02:41:06;1372.33;;;701.90;;
55202;SDS011;41077;52.956;6.796;2023-03-14T02:43:33;1999.90;;;999.90;;
55202;SDS011;41077;52.956;6.796;2023-03-14T02:45:59;1999.90;;;999.90;;
55202;SDS011;41077;52.956;6.796;2023-03-14T02:48:27;1999.90;;;999.90;;
55202;SDS011;41077;52.956;6.796;2023-03-14T02:50:57;1999.90;;;999.90;;
55202;SDS011;41077;52.956;6.796;2023-03-14T02:53:31;1999.90;;;999.90;;
55202;SDS011;41077;52.956;6.796;2023-03-14T02:55:59;1999.90;;;999.90;;
55202;SDS011;41077;52.956;6.796;2023-03-14T02:58:25;1999.90;;;999.90;;
55202;SDS011;41077;52.956;6.796;2023-03-14T03:00:51;1999.90;;;999.90;;
55202;SDS011;41077;52.956;6.796;2023-03-14T03:03:18;1999.90;;;999.90;;
55202;SDS011;41077;52.956;6.796;2023-03-14T03:05:47;1999.90;;;999.90;;
55202;SDS011;41077;52.956;6.796;2023-03-14T03:08:18;1999.90;;;999.90;;
55202;SDS011;41077;52.956;6.796;2023-03-14T03:10:44;1999.90;;;999.90;;
55202;SDS011;41077;52.956;6.796;2023-03-14T03:13:10;1999.90;;;999.90;;
55202;SDS011;41077;52.956;6.796;2023-03-14T03:15:36;1999.90;;;999.90;;
55202;SDS011;41077;52.956;6.796;2023-03-14T03:18:01;1999.90;;;999.90;;
55202;SDS011;41077;52.956;6.796;2023-03-14T03:20:27;1999.90;;;999.90;;
55202;SDS011;41077;52.956;6.796;2023-03-14T03:22:53;643.10;;;372.80;;
55202;SDS011;41077;52.956;6.796;2023-03-14T03:25:19;1999.90;;;999.90;;
55202;SDS011;41077;52.956;6.796;2023-03-14T03:27:45;1999.90;;;999.90;;
55202;SDS011;41077;52.956;6.796;2023-03-14T03:30:11;1999.90;;;999.90;;
55202;SDS011;41077;52.956;6.796;2023-03-14T03:32:36;1999.90;;;999.90;;
55202;SDS011;41077;52.956;6.796;2023-03-14T03:35:03;1999.90;;;999.90;;
55202;SDS011;41077;52.956;6.796;2023-03-14T03:37:32;1999.90;;;999.90;;
55202;SDS011;41077;52.956;6.796;2023-03-14T03:39:58;1999.90;;;999.90;;
55202;SDS011;41077;52.956;6.796;2023-03-14T03:42:26;1999.90;;;999.90;;
55202;SDS011;41077;52.956;6.796;2023-03-14T03:44:52;1999.90;;;999.90;;
55202;SDS011;41077;52.956;6.796;2023-03-14T03:47:18;1999.90;;;999.90;;
55202;SDS011;41077;52.956;6.796;2023-03-14T03:49:44;1999.90;;;999.90;;
55202;SDS011;41077;52.956;6.796;2023-03-14T03:52:09;1999.90;;;999.90;;
55202;SDS011;41077;52.956;6.796;2023-03-14T03:54:35;1999.90;;;999.90;;
55202;SDS011;41077;52.956;6.796;2023-03-14T03:57:01;1999.90;;;999.90;;
55202;SDS011;41077;52.956;6.796;2023-03-14T03:59:27;1999.90;;;999.90;;
55202;SDS011;41077;52.956;6.796;2023-03-14T04:01:52;1999.90;;;999.90;;
55202;SDS011;41077;52.956;6.796;2023-03-14T04:04:18;1999.90;;;999.90;;
55202;SDS011;41077;52.956;6.796;2023-03-14T04:06:44;1999.90;;;999.90;;
55202;SDS011;41077;52.956;6.796;2023-03-14T04:09:09;1523.55;;;771.10;;
55202;SDS011;41077;52.956;6.796;2023-03-14T04:11:35;1999.90;;;999.90;;
55202;SDS011;41077;52.956;6.796;2023-03-14T04:14:02;1999.90;;;999.90;;
55202;SDS011;41077;52.956;6.796;2023-03-14T04:16:28;1999.90;;;999.90;;
55202;SDS011;41077;52.956;6.796;2023-03-14T04:18:56;1999.90;;;999.90;;
55202;SDS011;41077;52.956;6.796;2023-03-14T04:21:22;1999.90;;;999.90;;
55202;SDS011;41077;52.956;6.796;2023-03-14T04:23:48;1999.90;;;999.90;;
55202;SDS011;41077;52.956;6.796;2023-03-14T04:26:14;1999.90;;;999.90;;
55202;SDS011;41077;52.956;6.796;2023-03-14T04:28:40;1999.90;;;999.90;;
55202;SDS011;41077;52.956;6.796;2023-03-14T04:31:06;1999.90;;;999.90;;
55202;SDS011;41077;52.956;6.796;2023-03-14T04:33:35;1999.90;;;999.90;;
55202;SDS011;41077;52.956;6.796;2023-03-14T04:36:02;1999.90;;;999.90;;
55202;SDS011;41077;52.956;6.796;2023-03-14T04:38:29;1999.90;;;999.90;;
55202;SDS011;41077;52.956;6.796;2023-03-14T04:40:54;1999.90;;;999.90;;
55202;SDS011;41077;52.956;6.796;2023-03-14T04:43:20;1999.90;;;999.90;;
55202;SDS011;41077;52.956;6.796;2023-03-14T04:45:46;1999.90;;;999.90;;
55202;SDS011;41077;52.956;6.796;2023-03-14T04:48:12;1999.90;;;999.90;;
55202;SDS011;41077;52.956;6.796;2023-03-14T04:50:38;1999.90;;;999.90;;
55202;SDS011;41077;52.956;6.796;2023-03-14T04:53:04;1999.90;;;999.90;;
55202;SDS011;41077;52.956;6.796;2023-03-14T04:55:30;1999.90;;;999.90;;
55202;SDS011;41077;52.956;6.796;2023-03-14T04:57:57;1999.90;;;999.90;;
55202;SDS011;41077;52.956;6.796;2023-03-14T05:00:23;1999.90;;;999.90;;
55202;SDS011;41077;52.956;6.796;2023-03-14T05:02:49;1999.90;;;999.90;;
55202;SDS011;41077;52.956;6.796;2023-03-14T05:05:15;1999.90;;;999.90;;
55202;SDS011;41077;52.956;6.796;2023-03-14T05:07:41;1999.90;;;999.90;;
55202;SDS011;41077;52.956;6.796;2023-03-14T05:10:07;1999.90;;;999.90;;
55202;SDS011;41077;52.956;6.796;2023-03-14T05:12:33;1999.90;;;999.90;;
55202;SDS011;41077;52.956;6.796;2023-03-14T05:14:59;1999.90;;;999.90;;
55202;SDS011;41077;52.956;6.796;2023-03-14T05:17:25;1999.90;;;999.90;;
55202;SDS011;41077;52.956;6.796;2023-03-14T05:19:50;1999.90;;;999.90;;
55202;SDS011;41077;52.956;6.796;2023-03-14T05:22:16;1999.90;;;999.90;;
55202;SDS011;41077;52.956;6.796;2023-03-14T05:24:42;1999.90;;;999.90;;
55202;SDS011;41077;52.956;6.796;2023-03-14T05:27:07;1999.90;;;999.90;;
55202;SDS011;41077;52.956;6.796;2023-03-14T05:29:33;1999.90;;;999.90;;
55202;SDS011;41077;52.956;6.796;2023-03-14T05:31:59;1999.90;;;999.90;;
55202;SDS011;41077;52.956;6.796;2023-03-14T05:34:24;1999.90;;;999.90;;
55202;SDS011;41077;52.956;6.796;2023-03-14T05:36:50;1999.90;;;999.90;;
55202;SDS011;41077;52.956;6.796;2023-03-14T05:39:16;1999.90;;;999.90;;
55202;SDS011;41077;52.956;6.796;2023-03-14T05:41:41;1999.90;;;999.90;;
55202;SDS011;41077;52.956;6.796;2023-03-14T05:44:07;1999.90;;;999.90;;
55202;SDS011;41077;52.956;6.796;2023-03-14T05:46:32;1999.90;;;999.90;;
55202;SDS011;41077;52.956;6.796;2023-03-14T05:48:58;1999.90;;;999.90;;
55202;SDS011;41077;52.956;6.796;2023-03-14T05:51:24;1999.90;;;999.90;;
55202;SDS011;41077;52.956;6.796;2023-03-14T05:53:50;1587.22;;;829.58;;
55202;SDS011;41077;52.956;6.796;2023-03-14T05:56:16;1518.65;;;767.25;;
55202;SDS011;41077;52.956;6.796;2023-03-14T05:58:42;1999.90;;;999.90;;
55202;SDS011;41077;52.956;6.796;2023-03-14T06:01:08;1999.90;;;999.90;;
55202;SDS011;41077;52.956;6.796;2023-03-14T06:03:34;1999.90;;;999.90;;
55202;SDS011;41077;52.956;6.796;2023-03-14T06:06:00;1999.90;;;999.90;;
55202;SDS011;41077;52.956;6.796;2023-03-14T06:08:26;1999.90;;;999.90;;
55202;SDS011;41077;52.956;6.796;2023-03-14T06:10:52;1999.90;;;999.90;;
55202;SDS011;41077;52.956;6.796;2023-03-14T06:13:18;1999.90;;;999.90;;
55202;SDS011;41077;52.956;6.796;2023-03-14T06:15:44;1999.90;;;999.90;;
55202;SDS011;41077;52.956;6.796;2023-03-14T06:18:10;1999.90;;;999.90;;
55202;SDS011;41077;52.956;6.796;2023-03-14T06:20:36;1999.90;;;999.90;;
55202;SDS011;41077;52.956;6.796;2023-03-14T06:23:04;1999.90;;;999.90;;
55202;SDS011;41077;52.956;6.796;2023-03-14T06:25:31;1999.90;;;999.90;;
55202;SDS011;41077;52.956;6.796;2023-03-14T06:27:57;1999.90;;;999.90;;
55202;SDS011;41077;52.956;6.796;2023-03-14T06:30:23;1999.90;;;999.90;;
55202;SDS011;41077;52.956;6.796;2023-03-14T06:32:49;1999.90;;;999.90;;
55202;SDS011;41077;52.956;6.796;2023-03-14T06:35:15;1999.90;;;999.90;;
55202;SDS011;41077;52.956;6.796;2023-03-14T06:37:40;1999.90;;;999.90;;
55202;SDS011;41077;52.956;6.796;2023-03-14T06:40:07;1999.90;;;999.90;;
55202;SDS011;41077;52.956;6.796;2023-03-14T06:42:38;1999.90;;;999.90;;
55202;SDS011;41077;52.956;6.796;2023-03-14T06:45:04;1999.90;;;999.90;;
55202;SDS011;41077;52.956;6.796;2023-03-14T06:47:31;1999.90;;;999.90;;
55202;SDS011;41077;52.956;6.796;2023-03-14T06:49:56;1999.90;;;999.90;;
55202;SDS011;41077;52.956;6.796;2023-03-14T06:52:22;1999.90;;;999.90;;
55202;SDS011;41077;52.956;6.796;2023-03-14T06:54:47;1999.90;;;999.90;;
55202;SDS011;41077;52.956;6.796;2023-03-14T06:57:13;1999.90;;;999.90;;
55202;SDS011;41077;52.956;6.796;2023-03-14T06:59:39;1999.90;;;999.90;;
55202;SDS011;41077;52.956;6.796;2023-03-14T07:02:07;1999.90;;;999.90;;
55202;SDS011;41077;52.956;6.796;2023-03-14T07:04:35;1999.90;;;999.90;;
55202;SDS011;41077;52.956;6.796;2023-03-14T07:07:01;1999.90;;;999.90;;
55202;SDS011;41077;52.956;6.796;2023-03-14T07:09:26;1999.90;;;999.90;;
55202;SDS011;41077;52.956;6.796;2023-03-14T07:11:52;1999.90;;;999.90;;
55202;SDS011;41077;52.956;6.796;2023-03-14T07:14:18;1999.90;;;999.90;;
55202;SDS011;41077;52.956;6.796;2023-03-14T07:16:43;1999.90;;;999.90;;
55202;SDS011;41077;52.956;6.796;2023-03-14T07:19:10;1999.90;;;999.90;;
55202;SDS011;41077;52.956;6.796;2023-03-14T07:21:36;1999.90;;;999.90;;
55202;SDS011;41077;52.956;6.796;2023-03-14T07:24:01;1999.90;;;999.90;;
55202;SDS011;41077;52.956;6.796;2023-03-14T07:26:27;1999.90;;;999.90;;
55202;SDS011;41077;52.956;6.796;2023-03-14T07:28:53;1999.90;;;999.90;;
55202;SDS011;41077;52.956;6.796;2023-03-14T07:31:19;1999.90;;;999.90;;
55202;SDS011;41077;52.956;6.796;2023-03-14T07:33:44;1999.90;;;999.90;;
55202;SDS011;41077;52.956;6.796;2023-03-14T07:36:10;1999.90;;;999.90;;
55202;SDS011;41077;52.956;6.796;2023-03-14T07:38:36;1999.90;;;999.90;;
55202;SDS011;41077;52.956;6.796;2023-03-14T07:41:02;1999.90;;;999.90;;
55202;SDS011;41077;52.956;6.796;2023-03-14T07:43:29;1999.90;;;999.90;;
55202;SDS011;41077;52.956;6.796;2023-03-14T07:45:55;1999.90;;;999.90;;
55202;SDS011;41077;52.956;6.796;2023-03-14T07:48:21;1999.90;;;999.90;;
55202;SDS011;41077;52.956;6.796;2023-03-14T07:50:49;1999.90;;;999.90;;
55202;SDS011;41077;52.956;6.796;2023-03-14T07:53:19;1999.90;;;999.90;;
55202;SDS011;41077;52.956;6.796;2023-03-14T07:55:45;1999.90;;;999.90;;
55202;SDS011;41077;52.956;6.796;2023-03-14T07:58:11;1999.90;;;999.90;;
55202;SDS011;41077;52.956;6.796;2023-03-14T08:00:37;1999.90;;;999.90;;
55202;SDS011;41077;52.956;6.796;2023-03-14T08:03:03;1999.90;;;999.90;;
55202;SDS011;41077;52.956;6.796;2023-03-14T08:05:29;1999.90;;;999.90;;
55202;SDS011;41077;52.956;6.796;2023-03-14T08:07:55;1999.90;;;999.90;;
55202;SDS011;41077;52.956;6.796;2023-03-14T08:10:20;1516.18;;;765.08;;
55202;SDS011;41077;52.956;6.796;2023-03-14T08:12:50;1999.90;;;999.90;;
55202;SDS011;41077;52.956;6.796;2023-03-14T08:15:20;1999.90;;;999.90;;
55202;SDS011;41077;52.956;6.796;2023-03-14T08:17:45;1999.90;;;999.90;;
55202;SDS011;41077;52.956;6.796;2023-03-14T08:20:16;1999.90;;;999.90;;
55202;SDS011;41077;52.956;6.796;2023-03-14T08:22:49;1999.90;;;999.90;;
55202;SDS011;41077;52.956;6.796;2023-03-14T08:25:15;1999.90;;;999.90;;
55202;SDS011;41077;52.956;6.796;2023-03-14T08:27:41;1999.90;;;999.90;;
55202;SDS011;41077;52.956;6.796;2023-03-14T08:30:09;1999.90;;;999.90;;
55202;SDS011;41077;52.956;6.796;2023-03-14T08:32:39;1999.90;;;999.90;;
55202;SDS011;41077;52.956;6.796;2023-03-14T08:35:05;1999.90;;;999.90;;
55202;SDS011;41077;52.956;6.796;2023-03-14T08:37:32;1999.90;;;999.90;;
55202;SDS011;41077;52.956;6.796;2023-03-14T08:39:58;1999.90;;;999.90;;
55202;SDS011;41077;52.956;6.796;2023-03-14T08:42:24;1999.90;;;999.90;;
55202;SDS011;41077;52.956;6.796;2023-03-14T08:44:50;1999.90;;;999.90;;
55202;SDS011;41077;52.956;6.796;2023-03-14T08:47:17;1999.90;;;999.90;;
55202;SDS011;41077;52.956;6.796;2023-03-14T08:49:43;1999.90;;;999.90;;
55202;SDS011;41077;52.956;6.796;2023-03-14T08:52:08;1999.90;;;999.90;;
55202;SDS011;41077;52.956;6.796;2023-03-14T08:54:34;1999.90;;;999.90;;
55202;SDS011;41077;52.956;6.796;2023-03-14T08:57:00;1999.90;;;999.90;;
55202;SDS011;41077;52.956;6.796;2023-03-14T08:59:25;1999.90;;;999.90;;
55202;SDS011;41077;52.956;6.796;2023-03-14T09:01:51;1999.90;;;999.90;;
55202;SDS011;41077;52.956;6.796;2023-03-14T09:04:17;1999.90;;;999.90;;
55202;SDS011;41077;52.956;6.796;2023-03-14T09:06:42;1999.90;;;999.90;;
55202;SDS011;41077;52.956;6.796;2023-03-14T09:09:08;1999.90;;;999.90;;
55202;SDS011;41077;52.956;6.796;2023-03-14T09:11:34;1999.90;;;999.90;;
55202;SDS011;41077;52.956;6.796;2023-03-14T09:14:00;1999.90;;;999.90;;
55202;SDS011;41077;52.956;6.796;2023-03-14T09:16:26;1999.90;;;999.90;;
55202;SDS011;41077;52.956;6.796;2023-03-14T09:18:52;1999.90;;;999.90;;
55202;SDS011;41077;52.956;6.796;2023-03-14T09:21:22;1999.90;;;999.90;;
55202;SDS011;41077;52.956;6.796;2023-03-14T09:23:48;1999.90;;;999.90;;
55202;SDS011;41077;52.956;6.796;2023-03-14T09:26:14;1999.90;;;999.90;;
55202;SDS011;41077;52.956;6.796;2023-03-14T09:28:39;1999.90;;;999.90;;
55202;SDS011;41077;52.956;6.796;2023-03-14T09:31:08;1999.90;;;999.90;;
55202;SDS011;41077;52.956;6.796;2023-03-14T09:33:36;1999.90;;;999.90;;
55202;SDS011;41077;52.956;6.796;2023-03-14T09:36:02;1999.90;;;999.90;;
55202;SDS011;41077;52.956;6.796;2023-03-14T09:38:29;1999.90;;;999.90;;
55202;SDS011;41077;52.956;6.796;2023-03-14T09:40:54;1999.90;;;999.90;;
55202;SDS011;41077;52.956;6.796;2023-03-14T09:43:23;1999.90;;;999.90;;
55202;SDS011;41077;52.956;6.796;2023-03-14T09:45:51;1999.90;;;999.90;;
55202;SDS011;41077;52.956;6.796;2023-03-14T09:48:19;1999.90;;;999.90;;
55202;SDS011;41077;52.956;6.796;2023-03-14T09:50:51;1999.90;;;999.90;;
55202;SDS011;41077;52.956;6.796;2023-03-14T09:53:19;1999.90;;;999.90;;
55202;SDS011;41077;52.956;6.796;2023-03-14T09:55:51;1999.90;;;999.90;;
55202;SDS011;41077;52.956;6.796;2023-03-14T09:58:22;1999.90;;;999.90;;
55202;SDS011;41077;52.956;6.796;2023-03-14T10:00:49;1999.90;;;999.90;;
55202;SDS011;41077;52.956;6.796;2023-03-14T10:03:23;1999.90;;;999.90;;
55202;SDS011;41077;52.956;6.796;2023-03-14T10:05:59;1999.90;;;999.90;;
55202;SDS011;41077;52.956;6.796;2023-03-14T10:08:25;1999.90;;;999.90;;
55202;SDS011;41077;52.956;6.796;2023-03-14T10:10:51;1999.90;;;999.90;;
55202;SDS011;41077;52.956;6.796;2023-03-14T10:13:25;1999.90;;;999.90;;
55202;SDS011;41077;52.956;6.796;2023-03-14T10:16:03;1999.90;;;999.90;;
55202;SDS011;41077;52.956;6.796;2023-03-14T10:18:33;1999.90;;;999.90;;
55202;SDS011;41077;52.956;6.796;2023-03-14T10:21:06;1999.90;;;999.90;;
55202;SDS011;41077;52.956;6.796;2023-03-14T10:23:43;1999.90;;;999.90;;
55202;SDS011;41077;52.956;6.796;2023-03-14T10:26:14;1999.90;;;999.90;;
55202;SDS011;41077;52.956;6.796;2023-03-14T10:28:45;1999.90;;;999.90;;
55202;SDS011;41077;52.956;6.796;2023-03-14T10:31:18;1999.90;;;999.90;;
55202;SDS011;41077;52.956;6.796;2023-03-14T10:34:00;1999.90;;;999.90;;
55202;SDS011;41077;52.956;6.796;2023-03-14T10:36:28;1999.90;;;999.90;;
55202;SDS011;41077;52.956;6.796;2023-03-14T10:39:15;1999.90;;;999.90;;
55202;SDS011;41077;52.956;6.796;2023-03-14T10:41:52;1999.90;;;999.90;;
55202;SDS011;41077;52.956;6.796;2023-03-14T10:44:23;1999.90;;;999.90;;
55202;SDS011;41077;52.956;6.796;2023-03-14T10:46:58;1999.90;;;999.90;;
55202;SDS011;41077;52.956;6.796;2023-03-14T10:49:32;1999.90;;;999.90;;
55202;SDS011;41077;52.956;6.796;2023-03-14T10:54:47;1999.90;;;999.90;;
55202;SDS011;41077;52.956;6.796;2023-03-14T10:57:20;1999.90;;;999.90;;
55202;SDS011;41077;52.956;6.796;2023-03-14T10:59:46;1999.90;;;999.90;;
55202;SDS011;41077;52.956;6.796;2023-03-14T11:07:51;1999.90;;;999.90;;
55202;SDS011;41077;52.956;6.796;2023-03-14T11:10:32;1999.90;;;999.90;;
55202;SDS011;41077;52.956;6.796;2023-03-14T11:13:09;1999.90;;;999.90;;
55202;SDS011;41077;52.956;6.796;2023-03-14T11:15:40;1999.90;;;999.90;;
55202;SDS011;41077;52.956;6.796;2023-03-14T11:20:59;160.73;;;152.18;;
55202;SDS011;41077;52.956;6.796;2023-03-14T11:28:54;313.65;;;296.05;;
55202;SDS011;41077;52.956;6.796;2023-03-14T11:31:26;290.98;;;275.88;;
55202;SDS011;41077;52.956;6.796;2023-03-14T11:34:00;128.52;;;121.57;;
55202;SDS011;41077;52.956;6.796;2023-03-14T11:39:15;417.85;;;394.25;;
55202;SDS011;41077;52.956;6.796;2023-03-14T11:41:52;271.17;;;256.20;;
55202;SDS011;41077;52.956;6.796;2023-03-14T11:44:20;300.02;;;283.17;;
55202;SDS011;41077;52.956;6.796;2023-03-14T11:46:54;301.75;;;284.85;;
55202;SDS011;41077;52.956;6.796;2023-03-14T11:51:58;237.45;;;224.60;;
55202;SDS011;41077;52.956;6.796;2023-03-14T11:54:48;138.70;;;131.13;;
55202;SDS011;41077;52.956;6.796;2023-03-14T11:57:21;347.23;;;327.42;;
55202;SDS011;41077;52.956;6.796;2023-03-14T12:02:54;146.18;;;138.88;;
55202;SDS011;41077;52.956;6.796;2023-03-14T12:08:19;110.03;;;103.82;;
55202;SDS011;41077;52.956;6.796;2023-03-14T12:10:55;95.55;;;90.43;;
55202;SDS011;41077;52.956;6.796;2023-03-14T12:13:29;299.50;;;282.08;;
55202;SDS011;41077;52.956;6.796;2023-03-14T12:15:59;253.50;;;239.98;;
55202;SDS011;41077;52.956;6.796;2023-03-14T12:18:35;135.35;;;128.38;;
55202;SDS011;41077;52.956;6.796;2023-03-14T12:21:08;134.95;;;128.13;;
55202;SDS011;41077;52.956;6.796;2023-03-14T12:23:48;206.55;;;193.80;;
55202;SDS011;41077;52.956;6.796;2023-03-14T12:28:50;77.85;;;73.20;;
55202;SDS011;41077;52.956;6.796;2023-03-14T12:39:59;83.20;;;78.65;;
55202;SDS011;41077;52.956;6.796;2023-03-14T12:42:12;139.48;;;132.13;;
55202;SDS011;41077;52.956;6.796;2023-03-14T12:44:42;150.57;;;142.60;;
55202;SDS011;41077;52.956;6.796;2023-03-14T12:47:40;82.40;;;77.25;;
55202;SDS011;41077;52.956;6.796;2023-03-14T12:50:07;105.22;;;99.20;;
55202;SDS011;41077;52.956;6.796;2023-03-14T12:55:10;92.88;;;87.35;;
55202;SDS011;41077;52.956;6.796;2023-03-14T13:00:57;176.63;;;165.55;;
55202;SDS011;41077;52.956;6.796;2023-03-14T13:03:26;64.72;;;60.75;;
55202;SDS011;41077;52.956;6.796;2023-03-14T13:06:03;70.97;;;67.05;;
55202;SDS011;41077;52.956;6.796;2023-03-14T13:10:58;118.60;;;111.78;;
55202;SDS011;41077;52.956;6.796;2023-03-14T13:13:24;74.82;;;70.53;;
55202;SDS011;41077;52.956;6.796;2023-03-14T13:15:58;71.88;;;67.78;;
55202;SDS011;41077;52.956;6.796;2023-03-14T13:21:34;94.57;;;89.13;;
55202;SDS011;41077;52.956;6.796;2023-03-14T13:24:04;102.75;;;97.13;;
55202;SDS011;41077;52.956;6.796;2023-03-14T13:26:32;71.20;;;67.25;;
55202;SDS011;41077;52.956;6.796;2023-03-14T13:29:25;137.07;;;129.95;;
55202;SDS011;41077;52.956;6.796;2023-03-14T13:31:55;87.65;;;82.80;;
55202;SDS011;41077;52.956;6.796;2023-03-14T13:34:30;76.57;;;72.47;;
55202;SDS011;41077;52.956;6.796;2023-03-14T13:36:57;92.45;;;86.70;;
55202;SDS011;41077;52.956;6.796;2023-03-14T13:39:24;149.90;;;140.88;;
55202;SDS011;41077;52.956;6.796;2023-03-14T13:41:53;92.18;;;86.93;;
55202;SDS011;41077;52.956;6.796;2023-03-14T13:47:04;75.32;;;71.13;;
55202;SDS011;41077;52.956;6.796;2023-03-14T13:49:35;66.93;;;63.10;;
55202;SDS011;41077;52.956;6.796;2023-03-14T13:52:03;145.02;;;135.77;;
55202;SDS011;41077;52.956;6.796;2023-03-14T13:54:45;61.15;;;57.85;;
55202;SDS011;41077;52.956;6.796;2023-03-14T13:57:11;60.53;;;57.33;;
55202;SDS011;41077;52.956;6.796;2023-03-14T13:59:37;120.80;;;114.40;;
55202;SDS011;41077;52.956;6.796;2023-03-14T14:02:13;83.53;;;79.28;;
55202;SDS011;41077;52.956;6.796;2023-03-14T14:04:39;74.80;;;70.43;;
55202;SDS011;41077;52.956;6.796;2023-03-14T14:07:06;128.30;;;120.63;;
55202;SDS011;41077;52.956;6.796;2023-03-14T14:09:41;69.25;;;65.25;;
55202;SDS011;41077;52.956;6.796;2023-03-14T14:14:59;231.23;;;218.52;;
55202;SDS011;41077;52.956;6.796;2023-03-14T14:20:21;111.97;;;106.45;;
55202;SDS011;41077;52.956;6.796;2023-03-14T14:23:19;104.88;;;99.10;;
55202;SDS011;41077;52.956;6.796;2023-03-14T14:25:53;166.18;;;157.27;;
55202;SDS011;41077;52.956;6.796;2023-03-14T14:28:25;270.42;;;256.17;;
55202;SDS011;41077;52.956;6.796;2023-03-14T14:31:02;126.15;;;119.63;;
55202;SDS011;41077;52.956;6.796;2023-03-14T14:33:37;123.25;;;116.43;;
55202;SDS011;41077;52.956;6.796;2023-03-14T14:36:13;144.40;;;136.90;;
55202;SDS011;41077;52.956;6.796;2023-03-14T14:38:59;129.90;;;123.00;;
55202;SDS011;41077;52.956;6.796;2023-03-14T14:41:30;224.18;;;212.50;;
55202;SDS011;41077;52.956;6.796;2023-03-14T14:43:59;153.25;;;145.23;;
55202;SDS011;41077;52.956;6.796;2023-03-14T14:46:28;173.50;;;164.63;;
55202;SDS011;41077;52.956;6.796;2023-03-14T14:48:57;202.38;;;190.73;;
55202;SDS011;41077;52.956;6.796;2023-03-14T14:51:31;133.38;;;126.43;;
55202;SDS011;41077;52.956;6.796;2023-03-14T14:54:02;120.43;;;113.78;;
55202;SDS011;41077;52.956;6.796;2023-03-14T14:56:34;199.68;;;188.93;;
55202;SDS011;41077;52.956;6.796;2023-03-14T14:59:02;99.82;;;94.65;;
55202;SDS011;41077;52.956;6.796;2023-03-14T15:01:34;194.68;;;184.52;;